sensor_id;sensor_type;location;lat;lon;timestamp;pressure;altitude;pressure_sealevel;temperature;humidity
73455;BME280;61690;51.824;6.306;2023-05-18T00:00:33;102725.69;;;18.61;48.43
73455;BME280;61690;51.824;6.306;2023-05-18T00:02:59;102729.13;;;18.64;48.52
73455;BME280;61690;51.824;6.306;2023-05-18T00:05:26;102729.06;;;18.65;48.23
73455;BME280;61690;51.824;6.306;2023-05-18T00:07:58;102723.84;;;18.64;47.87
73455;BME280;61690;51.824;6.306;2023-05-18T00:10:23;102728.34;;;18.60;48.35
73455;BME280;61690;51.824;6.306;2023-05-18T00:12:48;102724.06;;;18.57;48.46
73455;BME280;61690;51.824;6.306;2023-05-18T00:15:14;102729.38;;;18.56;48.24
73455;BME280;61690;51.824;6.306;2023-05-18T00:17:39;102724.13;;;18.56;48.29
73455;BME280;61690;51.824;6.306;2023-05-18T00:20:07;102729.53;;;18.53;48.47
73455;BME280;61690;51.824;6.306;2023-05-18T00:22:33;102726.97;;;18.50;48.38
73455;BME280;61690;51.824;6.306;2023-05-18T00:24:58;102730.66;;;18.46;48.76
73455;BME280;61690;51.824;6.306;2023-05-18T00:27:24;102735.13;;;18.44;48.32
73455;BME280;61690;51.824;6.306;2023-05-18T00:29:49;102722.97;;;18.39;48.49
73455;BME280;61690;51.824;6.306;2023-05-18T00:32:15;102729.13;;;18.38;48.51
73455;BME280;61690;51.824;6.306;2023-05-18T00:34:43;102731.00;;;18.35;48.89
73455;BME280;61690;51.824;6.306;2023-05-18T00:37:08;102731.91;;;18.35;48.84
73455;BME280;61690;51.824;6.306;2023-05-18T00:39:33;102731.91;;;18.35;48.85
73455;BME280;61690;51.824;6.306;2023-05-18T00:42:00;102728.50;;;18.32;48.61
73455;BME280;61690;51.824;6.306;2023-05-18T00:44:26;102727.63;;;18.31;48.53
73455;BME280;61690;51.824;6.306;2023-05-18T00:46:51;102725.06;;;18.30;48.68
73455;BME280;61690;51.824;6.306;2023-05-18T00:49:17;102729.59;;;18.26;48.63
73455;BME280;61690;51.824;6.306;2023-05-18T00:51:43;102731.28;;;18.27;48.74
73455;BME280;61690;51.824;6.306;2023-05-18T00:54:09;102732.22;;;18.26;48.66
73455;BME280;61690;51.824;6.306;2023-05-18T00:56:36;102732.22;;;18.26;48.96
73455;BME280;61690;51.824;6.306;2023-05-18T00:59:06;102736.63;;;18.26;48.57
73455;BME280;61690;51.824;6.306;2023-05-18T01:01:32;102734.00;;;18.26;48.64
73455;BME280;61690;51.824;6.306;2023-05-18T01:04:02;102730.59;;;18.22;48.87
73455;BME280;61690;51.824;6.306;2023-05-18T01:06:31;102731.50;;;18.21;48.53
73455;BME280;61690;51.824;6.306;2023-05-18T01:08:58;102734.19;;;18.19;49.15
73455;BME280;61690;51.824;6.306;2023-05-18T01:11:48;102732.47;;;18.18;49.05
73455;BME280;61690;51.824;6.306;2023-05-18T01:14:23;102740.44;;;18.17;48.76
73455;BME280;61690;51.824;6.306;2023-05-18T01:16:54;102731.69;;;18.16;48.63
73455;BME280;61690;51.824;6.306;2023-05-18T01:25:20;102736.13;;;18.14;49.02
73455;BME280;61690;51.824;6.306;2023-05-18T01:27:52;102738.81;;;18.13;48.71
73455;BME280;61690;51.824;6.306;2023-05-18T01:30:20;102731.00;;;18.10;48.83
73455;BME280;61690;51.824;6.306;2023-05-18T01:32:46;102737.22;;;18.09;48.98
73455;BME280;61690;51.824;6.306;2023-05-18T01:35:12;102739.78;;;18.10;48.57
73455;BME280;61690;51.824;6.306;2023-05-18T01:37:37;102739.88;;;18.07;48.79
73455;BME280;61690;51.824;6.306;2023-05-18T01:40:04;102742.53;;;18.07;48.57
73455;BME280;61690;51.824;6.306;2023-05-18T01:42:33;102737.31;;;18.06;49.06
73455;BME280;61690;51.824;6.306;2023-05-18T01:45:06;102733.81;;;18.05;48.80
73455;BME280;61690;51.824;6.306;2023-05-18T01:47:34;102742.63;;;18.04;48.86
73455;BME280;61690;51.824;6.306;2023-05-18T01:50:05;102741.81;;;18.02;48.96
73455;BME280;61690;51.824;6.306;2023-05-18T01:52:43;102745.25;;;18.04;48.65
73455;BME280;61690;51.824;6.306;2023-05-18T01:55:11;102742.72;;;18.01;49.16
73455;BME280;61690;51.824;6.306;2023-05-18T01:57:40;102739.22;;;18.00;48.70
73455;BME280;61690;51.824;6.306;2023-05-18T02:00:07;102741.00;;;18.00;48.69
73455;BME280;61690;51.824;6.306;2023-05-18T02:02:34;102741.84;;;18.00;48.61
73455;BME280;61690;51.824;6.306;2023-05-18T02:05:00;102740.94;;;18.01;48.85
73455;BME280;61690;51.824;6.306;2023-05-18T02:07:29;102741.97;;;17.97;48.96
73455;BME280;61690;51.824;6.306;2023-05-18T02:09:54;102747.25;;;17.97;49.17
73455;BME280;61690;51.824;6.306;2023-05-18T02:12:20;102740.19;;;17.98;49.00
73455;BME280;61690;51.824;6.306;2023-05-18T02:14:45;102742.88;;;17.96;48.98
73455;BME280;61690;51.824;6.306;2023-05-18T02:17:10;102742.09;;;17.93;49.24
73455;BME280;61690;51.824;6.306;2023-05-18T02:19:38;102744.69;;;17.94;49.10
73455;BME280;61690;51.824;6.306;2023-05-18T02:22:05;102743.84;;;17.94;48.81
73455;BME280;61690;51.824;6.306;2023-05-18T02:24:33;102742.09;;;17.93;49.15
73455;BME280;61690;51.824;6.306;2023-05-18T02:26:58;102749.16;;;17.92;48.93
73455;BME280;61690;51.824;6.306;2023-05-18T02:29:26;102742.22;;;17.90;48.89
73455;BME280;61690;51.824;6.306;2023-05-18T02:31:51;102748.38;;;17.89;48.90
73455;BME280;61690;51.824;6.306;2023-05-18T02:34:17;102743.13;;;17.89;49.11
73455;BME280;61690;51.824;6.306;2023-05-18T02:36:42;102738.75;;;17.89;48.90
73455;BME280;61690;51.824;6.306;2023-05-18T02:39:11;102738.75;;;17.89;49.11
73455;BME280;61690;51.824;6.306;2023-05-18T02:41:37;102738.78;;;17.88;48.74
73455;BME280;61690;51.824;6.306;2023-05-18T02:44:03;102732.63;;;17.87;48.81
73455;BME280;61690;51.824;6.306;2023-05-18T02:46:29;102734.47;;;17.85;48.98
73455;BME280;61690;51.824;6.306;2023-05-18T02:48:55;102744.09;;;17.86;49.15
73455;BME280;61690;51.824;6.306;2023-05-18T02:51:20;102748.56;;;17.84;48.80
73455;BME280;61690;51.824;6.306;2023-05-18T02:53:46;102738.88;;;17.83;48.62
73455;BME280;61690;51.824;6.306;2023-05-18T02:56:11;102735.41;;;17.82;49.13
73455;BME280;61690;51.824;6.306;2023-05-18T02:58:38;102733.75;;;17.80;48.87
73455;BME280;61690;51.824;6.306;2023-05-18T03:01:03;102738.88;;;17.83;48.67
73455;BME280;61690;51.824;6.306;2023-05-18T03:03:32;102739.00;;;17.80;48.86
73455;BME280;61690;51.824;6.306;2023-05-18T03:05:57;102745.16;;;17.79;48.56
73455;BME280;61690;51.824;6.306;2023-05-18T03:08:23;102738.19;;;17.78;48.65
73455;BME280;61690;51.824;6.306;2023-05-18T03:10:51;102744.41;;;17.75;49.09
73455;BME280;61690;51.824;6.306;2023-05-18T03:13:17;102740.88;;;17.76;48.78
73455;BME280;61690;51.824;6.306;2023-05-18T03:15:42;102735.66;;;17.75;49.16
73455;BME280;61690;51.824;6.306;2023-05-18T03:18:10;102730.38;;;17.75;49.06
73455;BME280;61690;51.824;6.306;2023-05-18T03:20:35;102733.94;;;17.74;48.85
73455;BME280;61690;51.824;6.306;2023-05-18T03:23:02;102733.94;;;17.74;48.97
73455;BME280;61690;51.824;6.306;2023-05-18T03:25:28;102730.56;;;17.70;48.89
73455;BME280;61690;51.824;6.306;2023-05-18T03:27:54;102736.63;;;17.72;49.05
73455;BME280;61690;51.824;6.306;2023-05-18T03:30:19;102734.09;;;17.69;48.90
73455;BME280;61690;51.824;6.306;2023-05-18T03:32:46;102734.03;;;17.71;49.09
73455;BME280;61690;51.824;6.306;2023-05-18T03:35:12;102738.50;;;17.69;49.07
73455;BME280;61690;51.824;6.306;2023-05-18T03:37:38;102734.94;;;17.70;48.86
73455;BME280;61690;51.824;6.306;2023-05-18T03:40:10;102733.22;;;17.69;48.65
73455;BME280;61690;51.824;6.306;2023-05-18T03:42:37;102741.16;;;17.67;48.90
73455;BME280;61690;51.824;6.306;2023-05-18T03:45:03;102737.69;;;17.67;48.97
73455;BME280;61690;51.824;6.306;2023-05-18T03:47:28;102734.19;;;17.66;49.06
73455;BME280;61690;51.824;6.306;2023-05-18T03:49:55;102734.25;;;17.64;48.95
73455;BME280;61690;51.824;6.306;2023-05-18T03:52:20;102731.63;;;17.64;48.87
73455;BME280;61690;51.824;6.306;2023-05-18T03:54:50;102738.56;;;17.66;48.77
73455;BME280;61690;51.824;6.306;2023-05-18T03:57:16;102739.47;;;17.66;48.55
73455;BME280;61690;51.824;6.306;2023-05-18T03:59:43;102737.78;;;17.63;48.73
73455;BME280;61690;51.824;6.306;2023-05-18T04:02:09;102741.31;;;17.62;48.97
73455;BME280;61690;51.824;6.306;2023-05-18T04:04:35;102734.28;;;17.63;48.85
73455;BME280;61690;51.824;6.306;2023-05-18T04:07:00;102735.19;;;17.62;48.46
73455;BME280;61690;51.824;6.306;2023-05-18T04:09:27;102744.00;;;17.61;48.73
73455;BME280;61690;51.824;6.306;2023-05-18T04:11:53;102733.47;;;17.61;48.95
73455;BME280;61690;51.824;6.306;2023-05-18T04:14:18;102742.22;;;17.61;49.04
73455;BME280;61690;51.824;6.306;2023-05-18T04:16:45;102744.03;;;17.59;48.82
73455;BME280;61690;51.824;6.306;2023-05-18T04:19:10;102747.53;;;17.60;48.89
73455;BME280;61690;51.824;6.306;2023-05-18T04:21:38;102746.72;;;17.58;49.12
73455;BME280;61690;51.824;6.306;2023-05-18T04:24:09;102751.09;;;17.59;49.10
73455;BME280;61690;51.824;6.306;2023-05-18T04:26:38;102758.22;;;17.55;49.06
73455;BME280;61690;51.824;6.306;2023-05-18T04:29:04;102755.53;;;17.57;49.00
73455;BME280;61690;51.824;6.306;2023-05-18T04:31:32;102759.88;;;17.58;48.67
73455;BME280;61690;51.824;6.306;2023-05-18T04:33:58;102766.91;;;17.57;48.87
73455;BME280;61690;51.824;6.306;2023-05-18T04:36:24;102768.63;;;17.58;48.88
73455;BME280;61690;51.824;6.306;2023-05-18T04:39:00;102773.00;;;17.59;48.55
73455;BME280;61690;51.824;6.306;2023-05-18T04:41:28;102765.91;;;17.61;49.04
73455;BME280;61690;51.824;6.306;2023-05-18T04:43:58;102766.06;;;17.57;48.73
73455;BME280;61690;51.824;6.306;2023-05-18T04:46:25;102766.91;;;17.57;48.77
73455;BME280;61690;51.824;6.306;2023-05-18T04:48:51;102773.03;;;17.58;49.15
73455;BME280;61690;51.824;6.306;2023-05-18T04:51:17;102774.78;;;17.59;48.63
73455;BME280;61690;51.824;6.306;2023-05-18T04:53:53;102774.78;;;17.59;49.03
73455;BME280;61690;51.824;6.306;2023-05-18T04:56:20;102784.41;;;17.58;48.65
73455;BME280;61690;51.824;6.306;2023-05-18T04:58:46;102787.97;;;17.57;48.89
73455;BME280;61690;51.824;6.306;2023-05-18T05:01:13;102786.19;;;17.58;48.89
73455;BME280;61690;51.824;6.306;2023-05-18T05:03:41;102789.69;;;17.58;48.79
73455;BME280;61690;51.824;6.306;2023-05-18T05:06:08;102782.72;;;17.57;48.74
73455;BME280;61690;51.824;6.306;2023-05-18T05:08:35;102788.81;;;17.58;48.71
73455;BME280;61690;51.824;6.306;2023-05-18T05:11:01;102786.22;;;17.56;48.99
73455;BME280;61690;51.824;6.306;2023-05-18T05:13:27;102787.94;;;17.59;48.78
73455;BME280;61690;51.824;6.306;2023-05-18T05:15:53;102784.41;;;17.58;48.56
73455;BME280;61690;51.824;6.306;2023-05-18T05:18:18;102794.03;;;17.59;48.64
73455;BME280;61690;51.824;6.306;2023-05-18T05:20:43;102798.44;;;17.59;48.70
73455;BME280;61690;51.824;6.306;2023-05-18T05:23:09;102799.31;;;17.59;48.52
73455;BME280;61690;51.824;6.306;2023-05-18T05:25:35;102796.69;;;17.59;49.28
73455;BME280;61690;51.824;6.306;2023-05-18T05:28:00;102794.94;;;17.58;48.59
73455;BME280;61690;51.824;6.306;2023-05-18T05:30:25;102792.31;;;17.58;48.56
73455;BME280;61690;51.824;6.306;2023-05-18T05:32:52;102796.69;;;17.59;48.40
73455;BME280;61690;51.824;6.306;2023-05-18T05:35:18;102797.56;;;17.58;48.43
73455;BME280;61690;51.824;6.306;2023-05-18T05:37:44;102795.81;;;17.59;48.75
73455;BME280;61690;51.824;6.306;2023-05-18T05:40:09;102798.44;;;17.59;48.74
73455;BME280;61690;51.824;6.306;2023-05-18T05:42:36;102794.94;;;17.58;48.82
73455;BME280;61690;51.824;6.306;2023-05-18T05:45:01;102794.03;;;17.59;48.87
73455;BME280;61690;51.824;6.306;2023-05-18T05:47:27;102787.00;;;17.60;48.76
73455;BME280;61690;51.824;6.306;2023-05-18T05:49:53;102788.81;;;17.58;48.41
73455;BME280;61690;51.824;6.306;2023-05-18T05:52:18;102796.69;;;17.59;48.85
73455;BME280;61690;51.824;6.306;2023-05-18T05:54:45;102796.69;;;17.59;48.46
73455;BME280;61690;51.824;6.306;2023-05-18T05:57:11;102801.03;;;17.60;48.77
73455;BME280;61690;51.824;6.306;2023-05-18T05:59:36;102794.00;;;17.61;48.40
73455;BME280;61690;51.824;6.306;2023-05-18T06:02:01;102795.81;;;17.59;48.33
73455;BME280;61690;51.824;6.306;2023-05-18T06:04:28;102790.56;;;17.59;48.67
73455;BME280;61690;51.824;6.306;2023-05-18T06:06:53;102794.91;;;17.60;48.65
73455;BME280;61690;51.824;6.306;2023-05-18T06:09:18;102794.03;;;17.59;48.56
73455;BME280;61690;51.824;6.306;2023-05-18T06:11:44;102800.13;;;17.61;48.34
73455;BME280;61690;51.824;6.306;2023-05-18T06:14:10;102794.03;;;17.59;48.51
73455;BME280;61690;51.824;6.306;2023-05-18T06:16:38;102792.31;;;17.58;48.65
73455;BME280;61690;51.824;6.306;2023-05-18T06:19:03;102795.72;;;17.62;48.16
73455;BME280;61690;51.824;6.306;2023-05-18T06:21:31;102787.78;;;17.63;48.49
73455;BME280;61690;51.824;6.306;2023-05-18T06:23:56;102790.44;;;17.62;48.30
73455;BME280;61690;51.824;6.306;2023-05-18T06:26:21;102786.06;;;17.62;48.09
73455;BME280;61690;51.824;6.306;2023-05-18T06:28:47;102798.34;;;17.62;48.25
73455;BME280;61690;51.824;6.306;2023-05-18T06:31:13;102798.34;;;17.62;48.19
73455;BME280;61690;51.824;6.306;2023-05-18T06:33:39;102802.72;;;17.63;48.14
73455;BME280;61690;51.824;6.306;2023-05-18T06:36:06;102798.25;;;17.65;48.36
73455;BME280;61690;51.824;6.306;2023-05-18T06:38:31;102804.41;;;17.64;48.21
73455;BME280;61690;51.824;6.306;2023-05-18T06:40:57;102794.72;;;17.66;48.31
73455;BME280;61690;51.824;6.306;2023-05-18T06:43:22;102793.84;;;17.66;48.39
73455;BME280;61690;51.824;6.306;2023-05-18T06:45:51;102803.53;;;17.65;48.52
73455;BME280;61690;51.824;6.306;2023-05-18T06:48:16;102806.16;;;17.65;48.39
73455;BME280;61690;51.824;6.306;2023-05-18T06:50:42;102801.75;;;17.66;48.04
73455;BME280;61690;51.824;6.306;2023-05-18T06:53:08;102795.63;;;17.65;48.20
73455;BME280;61690;51.824;6.306;2023-05-18T06:55:34;102800.84;;;17.67;47.99
73455;BME280;61690;51.824;6.306;2023-05-18T06:57:59;102795.53;;;17.68;47.89
73455;BME280;61690;51.824;6.306;2023-05-18T07:00:26;102808.75;;;17.67;47.95
73455;BME280;61690;51.824;6.306;2023-05-18T07:02:52;102796.41;;;17.69;48.13
73455;BME280;61690;51.824;6.306;2023-05-18T07:05:17;102801.66;;;17.69;48.25
73455;BME280;61690;51.824;6.306;2023-05-18T07:07:43;102809.56;;;17.69;48.22
73455;BME280;61690;51.824;6.306;2023-05-18T07:10:09;102799.03;;;17.69;48.11
73455;BME280;61690;51.824;6.306;2023-05-18T07:12:34;102808.63;;;17.70;47.93
73455;BME280;61690;51.824;6.306;2023-05-18T07:15:00;102808.63;;;17.70;48.05
73455;BME280;61690;51.824;6.306;2023-05-18T07:17:25;102807.78;;;17.69;47.74
73455;BME280;61690;51.824;6.306;2023-05-18T07:19:50;102805.09;;;17.71;47.81
73455;BME280;61690;51.824;6.306;2023-05-18T07:22:16;102815.63;;;17.71;47.80
73455;BME280;61690;51.824;6.306;2023-05-18T07:24:41;102821.75;;;17.71;47.75
73455;BME280;61690;51.824;6.306;2023-05-18T07:27:07;102820.81;;;17.74;47.86
73455;BME280;61690;51.824;6.306;2023-05-18T07:29:32;102822.50;;;17.75;47.40
73455;BME280;61690;51.824;6.306;2023-05-18T07:31:58;102826.06;;;17.74;47.72
73455;BME280;61690;51.824;6.306;2023-05-18T07:34:23;102819.88;;;17.75;47.61
73455;BME280;61690;51.824;6.306;2023-05-18T07:36:50;102818.09;;;17.75;47.40
73455;BME280;61690;51.824;6.306;2023-05-18T07:39:16;102822.50;;;17.75;47.53
73455;BME280;61690;51.824;6.306;2023-05-18T07:41:45;102821.63;;;17.76;47.26
73455;BME280;61690;51.824;6.306;2023-05-18T07:44:11;102820.81;;;17.74;47.17
73455;BME280;61690;51.824;6.306;2023-05-18T07:46:38;102818.19;;;17.74;47.08
73455;BME280;61690;51.824;6.306;2023-05-18T07:49:04;102813.72;;;17.76;47.22
73455;BME280;61690;51.824;6.306;2023-05-18T07:51:30;102821.63;;;17.76;47.34
73455;BME280;61690;51.824;6.306;2023-05-18T07:53:56;102823.31;;;17.77;47.06
73455;BME280;61690;51.824;6.306;2023-05-18T07:56:23;102832.97;;;17.78;46.80
73455;BME280;61690;51.824;6.306;2023-05-18T07:58:50;102826.81;;;17.77;47.12
73455;BME280;61690;51.824;6.306;2023-05-18T08:01:17;102828.59;;;17.77;47.03
73455;BME280;61690;51.824;6.306;2023-05-18T08:03:44;102830.25;;;17.79;47.19
73455;BME280;61690;51.824;6.306;2023-05-18T08:06:13;102833.72;;;17.81;46.96
73455;BME280;61690;51.824;6.306;2023-05-18T08:08:38;102822.97;;;18.42;45.52
73455;BME280;61690;51.824;6.306;2023-05-18T08:11:04;102832.06;;;18.34;45.88
73455;BME280;61690;51.824;6.306;2023-05-18T08:13:30;102830.63;;;18.23;45.59
73455;BME280;61690;51.824;6.306;2023-05-18T08:15:56;102832.53;;;18.20;45.90
73455;BME280;61690;51.824;6.306;2023-05-18T08:18:21;102833.25;;;18.23;44.75
73455;BME280;61690;51.824;6.306;2023-05-18T08:20:49;102834.97;;;18.26;44.64
73455;BME280;61690;51.824;6.306;2023-05-18T08:23:18;102836.66;;;18.27;43.88
73455;BME280;61690;51.824;6.306;2023-05-18T08:25:43;102836.56;;;18.30;44.92
73455;BME280;61690;51.824;6.306;2023-05-18T08:28:09;102836.56;;;18.30;44.99
73455;BME280;61690;51.824;6.306;2023-05-18T08:30:36;102836.47;;;18.33;45.49
73455;BME280;61690;51.824;6.306;2023-05-18T08:33:01;102840.88;;;18.33;45.12
73455;BME280;61690;51.824;6.306;2023-05-18T08:35:28;102831.22;;;18.33;45.07
73455;BME280;61690;51.824;6.306;2023-05-18T08:37:54;102835.63;;;18.31;45.46
73455;BME280;61690;51.824;6.306;2023-05-18T08:40:20;102826.78;;;18.34;45.03
73455;BME280;61690;51.824;6.306;2023-05-18T08:43:01;102815.28;;;18.36;45.43
73455;BME280;61690;51.824;6.306;2023-05-18T08:45:35;102827.56;;;18.37;45.41
73455;BME280;61690;51.824;6.306;2023-05-18T08:48:05;102823.94;;;18.40;45.05
73455;BME280;61690;51.824;6.306;2023-05-18T08:50:31;102822.16;;;18.40;45.09
73455;BME280;61690;51.824;6.306;2023-05-18T08:53:00;102811.63;;;18.40;44.93
73455;BME280;61690;51.824;6.306;2023-05-18T08:55:29;102808.09;;;18.41;44.39
73455;BME280;61690;51.824;6.306;2023-05-18T08:58:01;102820.34;;;18.42;44.33
73455;BME280;61690;51.824;6.306;2023-05-18T09:00:27;102812.38;;;18.44;44.48
73455;BME280;61690;51.824;6.306;2023-05-18T09:02:52;102810.59;;;18.45;44.19
73455;BME280;61690;51.824;6.306;2023-05-18T09:05:18;102809.69;;;18.46;44.50
73455;BME280;61690;51.824;6.306;2023-05-18T09:07:44;102807.03;;;18.47;44.08
73455;BME280;61690;51.824;6.306;2023-05-18T09:10:11;102811.31;;;18.50;43.96
73455;BME280;61690;51.824;6.306;2023-05-18T09:12:41;102794.59;;;18.51;44.05
73455;BME280;61690;51.824;6.306;2023-05-18T09:15:10;102793.66;;;18.52;43.92
73455;BME280;61690;51.824;6.306;2023-05-18T09:17:36;102799.75;;;18.54;43.99
73455;BME280;61690;51.824;6.306;2023-05-18T09:20:02;102806.75;;;18.55;43.59
73455;BME280;61690;51.824;6.306;2023-05-18T09:22:31;102796.25;;;18.53;43.48
73455;BME280;61690;51.824;6.306;2023-05-18T09:24:57;102790.13;;;18.53;43.40
73455;BME280;61690;51.824;6.306;2023-05-18T09:27:23;102797.13;;;18.54;43.16
73455;BME280;61690;51.824;6.306;2023-05-18T09:29:52;102792.66;;;18.56;43.13
73455;BME280;61690;51.824;6.306;2023-05-18T09:32:19;102794.38;;;18.57;42.91
73455;BME280;61690;51.824;6.306;2023-05-18T09:34:44;102785.53;;;18.58;43.17
73455;BME280;61690;51.824;6.306;2023-05-18T09:37:15;102782.91;;;18.58;43.17
73455;BME280;61690;51.824;6.306;2023-05-18T09:39:41;102781.16;;;18.58;42.52
73455;BME280;61690;51.824;6.306;2023-05-18T09:42:06;102782.81;;;18.61;43.26
73455;BME280;61690;51.824;6.306;2023-05-18T09:44:35;102781.03;;;18.61;43.07
73455;BME280;61690;51.824;6.306;2023-05-18T09:47:06;102786.25;;;18.63;43.18
73455;BME280;61690;51.824;6.306;2023-05-18T09:49:32;102785.34;;;18.64;43.34
73455;BME280;61690;51.824;6.306;2023-05-18T09:51:59;102784.47;;;18.64;43.31
73455;BME280;61690;51.824;6.306;2023-05-18T09:54:24;102787.97;;;18.64;43.26
73455;BME280;61690;51.824;6.306;2023-05-18T09:56:50;102781.03;;;18.61;43.01
73455;BME280;61690;51.824;6.306;2023-05-18T09:59:15;102772.31;;;18.59;42.74
73455;BME280;61690;51.824;6.306;2023-05-18T10:02:03;102787.28;;;18.59;42.56
73455;BME280;61690;51.824;6.306;2023-05-18T10:04:36;102777.63;;;18.58;41.91
73455;BME280;61690;51.824;6.306;2023-05-18T10:07:14;102779.38;;;18.59;41.44
73455;BME280;61690;51.824;6.306;2023-05-18T10:09:42;102777.50;;;18.63;41.83
73455;BME280;61690;51.824;6.306;2023-05-18T10:12:12;102781.81;;;18.64;41.74
73455;BME280;61690;51.824;6.306;2023-05-18T10:14:44;102772.97;;;18.66;41.79
73455;BME280;61690;51.824;6.306;2023-05-18T10:17:11;102771.25;;;18.65;41.59
73455;BME280;61690;51.824;6.306;2023-05-18T10:19:39;102772.97;;;18.66;41.48
73455;BME280;61690;51.824;6.306;2023-05-18T10:22:06;102779.94;;;18.67;41.26
73455;BME280;61690;51.824;6.306;2023-05-18T10:24:37;102768.47;;;18.70;41.16
73455;BME280;61690;51.824;6.306;2023-05-18T10:27:07;102772.78;;;18.71;41.15
73455;BME280;61690;51.824;6.306;2023-05-18T10:29:33;102761.41;;;18.70;41.21
73455;BME280;61690;51.824;6.306;2023-05-18T10:31:59;102763.09;;;18.71;41.14
73455;BME280;61690;51.824;6.306;2023-05-18T10:34:28;102771.91;;;18.72;40.89
73455;BME280;61690;51.824;6.306;2023-05-18T10:36:55;102770.09;;;18.72;40.73
73455;BME280;61690;51.824;6.306;2023-05-18T10:39:25;102760.41;;;18.73;40.57
73455;BME280;61690;51.824;6.306;2023-05-18T10:41:53;102753.34;;;18.73;40.54
73455;BME280;61690;51.824;6.306;2023-05-18T10:44:23;102753.34;;;18.73;40.67
73455;BME280;61690;51.824;6.306;2023-05-18T10:46:50;102756.88;;;18.74;40.25
73455;BME280;61690;51.824;6.306;2023-05-18T10:49:18;102756.00;;;18.73;40.46
73455;BME280;61690;51.824;6.306;2023-05-18T10:51:48;102755.94;;;18.75;40.62
73455;BME280;61690;51.824;6.306;2023-05-18T10:54:16;102744.59;;;18.73;40.57
73455;BME280;61690;51.824;6.306;2023-05-18T10:56:44;102751.59;;;18.74;40.14
73455;BME280;61690;51.824;6.306;2023-05-18T10:59:12;102749.03;;;18.72;40.54
73455;BME280;61690;51.824;6.306;2023-05-18T11:01:39;102738.44;;;18.74;40.43
73455;BME280;61690;51.824;6.306;2023-05-18T11:04:12;102743.63;;;18.75;40.71
73455;BME280;61690;51.824;6.306;2023-05-18T11:06:38;102738.34;;;18.75;40.44
73455;BME280;61690;51.824;6.306;2023-05-18T11:09:05;102746.34;;;18.74;40.35
73455;BME280;61690;51.824;6.306;2023-05-18T11:11:51;102736.63;;;18.74;39.83
73455;BME280;61690;51.824;6.306;2023-05-18T11:14:24;102736.63;;;18.74;40.08
73455;BME280;61690;51.824;6.306;2023-05-18T11:16:50;102734.00;;;18.74;40.33
73455;BME280;61690;51.824;6.306;2023-05-18T11:19:16;102740.06;;;18.76;40.76
73455;BME280;61690;51.824;6.306;2023-05-18T11:26:58;102728.56;;;18.79;40.95
73455;BME280;61690;51.824;6.306;2023-05-18T11:29:33;102732.13;;;18.78;41.08
73455;BME280;61690;51.824;6.306;2023-05-18T11:32:00;102726.09;;;18.74;40.54
73455;BME280;61690;51.824;6.306;2023-05-18T11:34:49;102736.53;;;18.77;40.57
73455;BME280;61690;51.824;6.306;2023-05-18T11:37:15;102726.00;;;18.77;40.98
73455;BME280;61690;51.824;6.306;2023-05-18T11:39:52;102737.34;;;18.79;41.02
73455;BME280;61690;51.824;6.306;2023-05-18T11:42:18;102727.69;;;18.80;40.59
73455;BME280;61690;51.824;6.306;2023-05-18T11:44:52;102733.75;;;18.82;40.76
73455;BME280;61690;51.824;6.306;2023-05-18T11:47:19;102732.91;;;18.82;40.38
73455;BME280;61690;51.824;6.306;2023-05-18T11:49:46;102725.91;;;18.80;40.46
73455;BME280;61690;51.824;6.306;2023-05-18T11:52:22;102723.16;;;18.84;40.24
73455;BME280;61690;51.824;6.306;2023-05-18T11:54:51;102726.63;;;18.84;40.37
73455;BME280;61690;51.824;6.306;2023-05-18T11:59:58;102718.69;;;18.86;40.43
73455;BME280;61690;51.824;6.306;2023-05-18T12:02:31;102706.41;;;18.85;40.67
73455;BME280;61690;51.824;6.306;2023-05-18T12:04:58;102705.56;;;18.84;40.84
73455;BME280;61690;51.824;6.306;2023-05-18T12:07:25;102719.53;;;18.86;40.52
73455;BME280;61690;51.824;6.306;2023-05-18T12:09:56;102710.81;;;18.84;40.55
73455;BME280;61690;51.824;6.306;2023-05-18T12:12:21;102702.91;;;18.84;40.24
73455;BME280;61690;51.824;6.306;2023-05-18T12:14:59;102702.84;;;18.86;40.67
73455;BME280;61690;51.824;6.306;2023-05-18T12:17:41;102698.44;;;18.86;40.39
73455;BME280;61690;51.824;6.306;2023-05-18T12:20:20;102699.28;;;18.87;40.22
73455;BME280;61690;51.824;6.306;2023-05-18T12:22:47;102694.81;;;18.89;40.19
73455;BME280;61690;51.824;6.306;2023-05-18T12:25:14;102696.59;;;18.88;40.09
73455;BME280;61690;51.824;6.306;2023-05-18T12:27:41;102694.81;;;18.89;40.43
73455;BME280;61690;51.824;6.306;2023-05-18T12:30:10;102689.53;;;18.89;40.23
73455;BME280;61690;51.824;6.306;2023-05-18T12:32:36;102690.59;;;18.85;39.57
73455;BME280;61690;51.824;6.306;2023-05-18T12:35:03;102684.91;;;18.72;37.73
73455;BME280;61690;51.824;6.306;2023-05-18T12:37:29;102690.09;;;18.73;38.03
73455;BME280;61690;51.824;6.306;2023-05-18T12:39:55;102688.19;;;18.77;38.60
73455;BME280;61690;51.824;6.306;2023-05-18T12:42:20;102683.72;;;18.80;38.91
73455;BME280;61690;51.824;6.306;2023-05-18T12:44:47;102682.75;;;18.83;39.38
73455;BME280;61690;51.824;6.306;2023-05-18T12:47:14;102685.31;;;18.85;39.35
73455;BME280;61690;51.824;6.306;2023-05-18T12:49:42;102688.03;;;18.83;39.12
73455;BME280;61690;51.824;6.306;2023-05-18T12:52:13;102677.41;;;18.85;39.20
73455;BME280;61690;51.824;6.306;2023-05-18T12:54:54;102670.41;;;18.84;39.36
73455;BME280;61690;51.824;6.306;2023-05-18T12:57:23;102673.97;;;18.83;39.28
73455;BME280;61690;51.824;6.306;2023-05-18T12:59:52;102670.28;;;18.87;39.33
73455;BME280;61690;51.824;6.306;2023-05-18T13:02:32;102668.44;;;18.89;39.25
73455;BME280;61690;51.824;6.306;2023-05-18T13:05:23;102671.09;;;18.89;39.02